sensor_id;sensor_type;location;lat;lon;timestamp;pressure;altitude;pressure_sealevel;temperature;humidity
10464;BME280;5279;42.048;24.638;2023-05-20T00:00:15;97727.06;;;14.41;100.00
10464;BME280;5279;42.048;24.638;2023-05-20T00:02:43;97702.00;;;14.26;100.00
10464;BME280;5279;42.048;24.638;2023-05-20T00:05:10;97706.38;;;14.35;100.00
10464;BME280;5279;42.048;24.638;2023-05-20T00:07:38;97720.03;;;14.48;100.00
10464;BME280;5279;42.048;24.638;2023-05-20T00:10:06;97709.22;;;14.57;100.00
10464;BME280;5279;42.048;24.638;2023-05-20T00:12:36;97708.03;;;14.60;100.00
10464;BME280;5279;42.048;24.638;2023-05-20T00:15:04;97712.06;;;14.56;100.00
10464;BME280;5279;42.048;24.638;2023-05-20T00:17:31;97711.72;;;14.59;100.00
10464;BME280;5279;42.048;24.638;2023-05-20T00:19:58;97704.38;;;14.45;100.00
10464;BME280;5279;42.048;24.638;2023-05-20T00:22:25;97702.72;;;14.44;100.00
10464;BME280;5279;42.048;24.638;2023-05-20T00:24:52;97712.03;;;14.40;100.00
10464;BME280;5279;42.048;24.638;2023-05-20T00:27:19;97706.19;;;14.44;100.00
10464;BME280;5279;42.048;24.638;2023-05-20T00:29:47;97702.72;;;14.44;100.00
10464;BME280;5279;42.048;24.638;2023-05-20T00:32:14;97698.06;;;14.38;100.00
10464;BME280;5279;42.048;24.638;2023-05-20T00:34:41;97705.03;;;14.39;100.00
10464;BME280;5279;42.048;24.638;2023-05-20T00:37:08;97702.34;;;14.31;100.00
10464;BME280;5279;42.048;24.638;2023-05-20T00:39:35;97708.00;;;14.28;100.00
10464;BME280;5279;42.048;24.638;2023-05-20T00:42:03;97697.84;;;14.31;100.00
10464;BME280;5279;42.048;24.638;2023-05-20T00:44:30;97705.69;;;14.33;100.00
10464;BME280;5279;42.048;24.638;2023-05-20T00:47:00;97710.16;;;14.32;98.94
10464;BME280;5279;42.048;24.638;2023-05-20T00:49:27;97708.00;;;14.28;100.00
10464;BME280;5279;42.048;24.638;2023-05-20T00:51:54;97710.34;;;14.22;100.00
10464;BME280;5279;42.048;24.638;2023-05-20T00:54:21;97694.97;;;14.16;100.00
10464;BME280;5279;42.048;24.638;2023-05-20T00:56:48;97695.66;;;14.27;99.92
10464;BME280;5279;42.048;24.638;2023-05-20T00:59:15;97702.34;;;14.22;100.00
10464;BME280;5279;42.048;24.638;2023-05-20T01:01:42;97693.31;;;14.15;100.00
10464;BME280;5279;42.048;24.638;2023-05-20T01:04:10;97700.81;;;14.12;100.00
10464;BME280;5279;42.048;24.638;2023-05-20T01:06:37;97696.28;;;14.04;100.00
10464;BME280;5279;42.048;24.638;2023-05-20T01:09:04;97697.63;;;14.16;99.65
10464;BME280;5279;42.048;24.638;2023-05-20T01:11:34;97700.63;;;14.13;100.00
10464;BME280;5279;42.048;24.638;2023-05-20T01:14:07;97689.97;;;14.13;100.00
10464;BME280;5279;42.048;24.638;2023-05-20T01:16:34;97682.63;;;14.07;100.00
10464;BME280;5279;42.048;24.638;2023-05-20T01:19:07;97675.28;;;13.85;100.00
10464;BME280;5279;42.048;24.638;2023-05-20T01:21:39;97675.94;;;13.95;100.00
10464;BME280;5279;42.048;24.638;2023-05-20T01:24:08;97680.63;;;14.01;100.00
10464;BME280;5279;42.048;24.638;2023-05-20T01:26:36;97675.81;;;14.05;100.00
10464;BME280;5279;42.048;24.638;2023-05-20T01:29:04;97671.97;;;13.99;100.00
10464;BME280;5279;42.048;24.638;2023-05-20T01:31:32;97679.97;;;13.99;100.00
10464;BME280;5279;42.048;24.638;2023-05-20T01:34:02;97685.63;;;14.04;100.00
10464;BME280;5279;42.048;24.638;2023-05-20T01:36:32;97685.63;;;14.04;100.00
10464;BME280;5279;42.048;24.638;2023-05-20T01:39:01;97670.47;;;14.05;100.00
10464;BME280;5279;42.048;24.638;2023-05-20T01:41:34;97669.63;;;13.96;100.00
10464;BME280;5279;42.048;24.638;2023-05-20T01:44:03;97666.50;;;14.01;100.00
10464;BME280;5279;42.048;24.638;2023-05-20T01:46:32;97676.00;;;14.03;100.00
10464;BME280;5279;42.048;24.638;2023-05-20T01:49:00;97670.28;;;13.98;100.00
10464;BME280;5279;42.048;24.638;2023-05-20T01:51:28;97675.47;;;13.92;100.00
10464;BME280;5279;42.048;24.638;2023-05-20T01:53:58;97670.81;;;14.02;100.00
10464;BME280;5279;42.048;24.638;2023-05-20T01:56:29;97668.84;;;14.04;100.00
10464;BME280;5279;42.048;24.638;2023-05-20T01:58:58;97669.97;;;13.93;100.00
10464;BME280;5279;42.048;24.638;2023-05-20T02:01:26;97661.66;;;13.96;100.00
10464;BME280;5279;42.048;24.638;2023-05-20T02:03:53;97662.97;;;13.92;100.00
10464;BME280;5279;42.048;24.638;2023-05-20T02:09:42;97660.16;;;14.02;99.84
10464;BME280;5279;42.048;24.638;2023-05-20T02:12:10;97666.31;;;13.94;100.00
10464;BME280;5279;42.048;24.638;2023-05-20T02:14:42;97653.66;;;13.96;100.00
10464;BME280;5279;42.048;24.638;2023-05-20T02:17:12;97656.66;;;13.93;100.00
10464;BME280;5279;42.048;24.638;2023-05-20T02:19:40;97679.31;;;13.97;100.00
10464;BME280;5279;42.048;24.638;2023-05-20T02:22:08;97660.47;;;13.99;100.00
10464;BME280;5279;42.048;24.638;2023-05-20T02:24:36;97667.66;;;14.14;97.19
10464;BME280;5279;42.048;24.638;2023-05-20T02:27:03;97664.31;;;14.04;100.00
10464;BME280;5279;42.048;24.638;2023-05-20T02:29:32;97662.31;;;13.90;100.00
10464;BME280;5279;42.048;24.638;2023-05-20T02:32:01;97654.81;;;13.86;100.00
10464;BME280;5279;42.048;24.638;2023-05-20T02:34:31;97658.13;;;13.80;100.00
10464;BME280;5279;42.048;24.638;2023-05-20T02:36:59;97654.31;;;13.82;100.00
10464;BME280;5279;42.048;24.638;2023-05-20T02:39:26;97657.59;;;13.68;100.00
10464;BME280;5279;42.048;24.638;2023-05-20T02:41:54;97660.63;;;13.73;100.00
10464;BME280;5279;42.048;24.638;2023-05-20T02:44:22;97650.81;;;13.74;100.00
10464;BME280;5279;42.048;24.638;2023-05-20T02:46:49;97660.81;;;13.80;100.00
10464;BME280;5279;42.048;24.638;2023-05-20T02:49:18;97656.78;;;13.84;100.00
10464;BME280;5279;42.048;24.638;2023-05-20T02:51:45;97651.78;;;13.81;99.17
10464;BME280;5279;42.048;24.638;2023-05-20T02:54:14;97650.47;;;13.85;100.00
10464;BME280;5279;42.048;24.638;2023-05-20T02:56:42;97643.66;;;13.90;100.00
10464;BME280;5279;42.048;24.638;2023-05-20T02:59:09;97646.50;;;13.97;98.66
10464;BME280;5279;42.048;24.638;2023-05-20T03:01:37;97644.00;;;13.95;99.91
10464;BME280;5279;42.048;24.638;2023-05-20T03:04:06;97644.00;;;13.95;100.00
10464;BME280;5279;42.048;24.638;2023-05-20T03:06:35;97638.00;;;13.85;100.00
10464;BME280;5279;42.048;24.638;2023-05-20T03:09:03;97646.00;;;13.93;100.00
10464;BME280;5279;42.048;24.638;2023-05-20T03:11:31;97646.66;;;13.87;100.00
10464;BME280;5279;42.048;24.638;2023-05-20T03:14:02;97638.81;;;13.78;100.00
10464;BME280;5279;42.048;24.638;2023-05-20T03:16:30;97647.31;;;13.89;100.00
10464;BME280;5279;42.048;24.638;2023-05-20T03:19:00;97649.16;;;13.89;97.39
10464;BME280;5279;42.048;24.638;2023-05-20T03:21:28;97644.31;;;13.92;99.55
10464;BME280;5279;42.048;24.638;2023-05-20T03:23:57;97658.66;;;14.07;98.20
10464;BME280;5279;42.048;24.638;2023-05-20T03:26:28;97664.34;;;14.12;97.57
10464;BME280;5279;42.048;24.638;2023-05-20T03:28:58;97653.34;;;14.15;95.65
10464;BME280;5279;42.048;24.638;2023-05-20T03:31:27;97663.03;;;14.33;92.96
10464;BME280;5279;42.048;24.638;2023-05-20T03:33:54;97667.88;;;14.45;92.16
10464;BME280;5279;42.048;24.638;2023-05-20T03:36:21;97665.03;;;14.55;91.15
10464;BME280;5279;42.048;24.638;2023-05-20T03:38:48;97665.03;;;14.63;90.08
10464;BME280;5279;42.048;24.638;2023-05-20T03:41:17;97669.69;;;14.69;89.45
10464;BME280;5279;42.048;24.638;2023-05-20T03:43:44;97674.72;;;14.56;90.81
10464;BME280;5279;42.048;24.638;2023-05-20T03:46:12;97672.72;;;14.58;91.16
10464;BME280;5279;42.048;24.638;2023-05-20T03:48:40;97674.72;;;14.56;92.50
10464;BME280;5279;42.048;24.638;2023-05-20T03:51:07;97688.34;;;14.69;92.33
10464;BME280;5279;42.048;24.638;2023-05-20T03:53:35;97686.69;;;14.76;90.04
10464;BME280;5279;42.048;24.638;2023-05-20T03:56:03;97700.69;;;14.78;91.06
10464;BME280;5279;42.048;24.638;2023-05-20T03:58:32;97686.34;;;14.79;88.86
10464;BME280;5279;42.048;24.638;2023-05-20T04:01:00;97694.00;;;14.90;88.66
10464;BME280;5279;42.048;24.638;2023-05-20T04:03:27;97704.00;;;14.96;89.57
10464;BME280;5279;42.048;24.638;2023-05-20T04:05:56;97701.00;;;15.07;90.00
10464;BME280;5279;42.048;24.638;2023-05-20T04:08:23;97701.13;;;15.14;87.51
10464;BME280;5279;42.048;24.638;2023-05-20T04:10:54;97710.94;;;15.29;86.35
10464;BME280;5279;42.048;24.638;2023-05-20T04:13:23;97712.25;;;15.50;85.02
10464;BME280;5279;42.048;24.638;2023-05-20T04:15:52;97708.84;;;15.64;84.18
10464;BME280;5279;42.048;24.638;2023-05-20T04:18:20;97692.19;;;15.54;84.12
10464;BME280;5279;42.048;24.638;2023-05-20T04:20:47;97717.50;;;15.66;85.81
10464;BME280;5279;42.048;24.638;2023-05-20T04:23:14;97713.84;;;15.67;84.18
10464;BME280;5279;42.048;24.638;2023-05-20T04:25:41;97711.81;;;15.69;84.58
10464;BME280;5279;42.048;24.638;2023-05-20T04:28:10;97714.13;;;15.80;85.03
10464;BME280;5279;42.048;24.638;2023-05-20T04:30:39;97720.75;;;15.84;83.37
10464;BME280;5279;42.048;24.638;2023-05-20T04:33:08;97693.44;;;15.74;82.46
10464;BME280;5279;42.048;24.638;2023-05-20T04:35:36;97702.38;;;15.89;84.08
10464;BME280;5279;42.048;24.638;2023-05-20T04:38:06;97705.34;;;15.94;84.61
10464;BME280;5279;42.048;24.638;2023-05-20T04:40:33;97700.63;;;16.04;84.05
10464;BME280;5279;42.048;24.638;2023-05-20T04:43:00;97700.91;;;16.09;80.76
10464;BME280;5279;42.048;24.638;2023-05-20T04:45:28;97699.50;;;16.21;80.45
10464;BME280;5279;42.048;24.638;2023-05-20T04:47:58;97712.88;;;16.44;79.29
10464;BME280;5279;42.048;24.638;2023-05-20T04:50:27;97698.97;;;16.49;77.74
10464;BME280;5279;42.048;24.638;2023-05-20T04:52:54;97702.91;;;16.61;78.13
10464;BME280;5279;42.048;24.638;2023-05-20T04:55:21;97698.28;;;16.77;79.94
10464;BME280;5279;42.048;24.638;2023-05-20T04:57:49;97690.25;;;16.92;78.33
10464;BME280;5279;42.048;24.638;2023-05-20T05:00:16;97698.16;;;17.08;77.29
10464;BME280;5279;42.048;24.638;2023-05-20T05:02:43;97690.28;;;17.21;76.88
10464;BME280;5279;42.048;24.638;2023-05-20T05:05:10;97687.59;;;17.36;78.27
10464;BME280;5279;42.048;24.638;2023-05-20T05:07:38;97700.63;;;17.39;75.51
10464;BME280;5279;42.048;24.638;2023-05-20T05:10:06;97707.13;;;17.44;73.46
10464;BME280;5279;42.048;24.638;2023-05-20T05:12:33;97694.84;;;17.65;74.26
10464;BME280;5279;42.048;24.638;2023-05-20T05:15:00;97698.97;;;17.82;72.48
10464;BME280;5279;42.048;24.638;2023-05-20T05:17:29;97689.69;;;17.99;74.35
10464;BME280;5279;42.048;24.638;2023-05-20T05:19:56;97695.28;;;18.19;72.56
10464;BME280;5279;42.048;24.638;2023-05-20T05:22:23;97693.81;;;18.37;70.66
10464;BME280;5279;42.048;24.638;2023-05-20T05:24:54;97695.69;;;18.58;71.56
10464;BME280;5279;42.048;24.638;2023-05-20T05:27:23;97683.91;;;18.80;72.84
10464;BME280;5279;42.048;24.638;2023-05-20T05:29:51;97684.28;;;18.98;69.49
10464;BME280;5279;42.048;24.638;2023-05-20T05:32:18;97685.91;;;19.27;68.52
10464;BME280;5279;42.048;24.638;2023-05-20T05:34:47;97687.53;;;19.49;68.19
10464;BME280;5279;42.048;24.638;2023-05-20T05:37:14;97698.44;;;19.82;67.80
10464;BME280;5279;42.048;24.638;2023-05-20T05:39:41;97695.44;;;20.05;68.92
10464;BME280;5279;42.048;24.638;2023-05-20T05:42:10;97697.53;;;20.23;66.67
10464;BME280;5279;42.048;24.638;2023-05-20T05:44:37;97695.97;;;20.48;66.68
10464;BME280;5279;42.048;24.638;2023-05-20T05:47:05;97689.78;;;20.60;71.02
10464;BME280;5279;42.048;24.638;2023-05-20T05:49:34;97683.81;;;20.85;73.71
10464;BME280;5279;42.048;24.638;2023-05-20T05:52:01;97690.22;;;20.97;77.17
10464;BME280;5279;42.048;24.638;2023-05-20T05:54:28;97691.06;;;20.91;80.84
10464;BME280;5279;42.048;24.638;2023-05-20T05:56:55;97699.72;;;20.80;84.40
10464;BME280;5279;42.048;24.638;2023-05-20T05:59:23;97695.16;;;20.47;82.78
10464;BME280;5279;42.048;24.638;2023-05-20T06:01:50;97701.56;;;20.46;83.21
10464;BME280;5279;42.048;24.638;2023-05-20T06:04:17;97705.25;;;20.32;82.58
10464;BME280;5279;42.048;24.638;2023-05-20T06:06:44;97701.66;;;20.12;83.81
10464;BME280;5279;42.048;24.638;2023-05-20T06:09:11;97688.09;;;20.33;84.28
10464;BME280;5279;42.048;24.638;2023-05-20T06:11:39;97686.44;;;20.39;82.41
10464;BME280;5279;42.048;24.638;2023-05-20T06:14:06;97691.81;;;20.52;83.58
10464;BME280;5279;42.048;24.638;2023-05-20T06:16:36;97682.13;;;20.77;82.78
10464;BME280;5279;42.048;24.638;2023-05-20T06:19:03;97687.09;;;20.87;61.14
10464;BME280;5279;42.048;24.638;2023-05-20T06:21:30;97681.50;;;20.95;67.71
10464;BME280;5279;42.048;24.638;2023-05-20T06:23:57;97679.44;;;21.10;67.33
10464;BME280;5279;42.048;24.638;2023-05-20T06:26:24;97686.91;;;21.21;68.90
10464;BME280;5279;42.048;24.638;2023-05-20T06:28:51;97685.00;;;21.41;59.65
10464;BME280;5279;42.048;24.638;2023-05-20T06:31:18;97683.56;;;21.45;55.46
10464;BME280;5279;42.048;24.638;2023-05-20T06:33:46;97681.09;;;21.24;53.43
10464;BME280;5279;42.048;24.638;2023-05-20T06:36:13;97683.16;;;21.35;56.29
10464;BME280;5279;42.048;24.638;2023-05-20T06:38:40;97677.31;;;21.45;55.02
10464;BME280;5279;42.048;24.638;2023-05-20T06:41:07;97671.50;;;21.48;51.96
10464;BME280;5279;42.048;24.638;2023-05-20T06:43:35;97677.75;;;21.48;52.69
10464;BME280;5279;42.048;24.638;2023-05-20T06:46:02;97666.69;;;21.63;51.77
10464;BME280;5279;42.048;24.638;2023-05-20T06:48:30;97660.41;;;21.82;52.50
10464;BME280;5279;42.048;24.638;2023-05-20T06:50:59;97669.28;;;21.96;50.81
10464;BME280;5279;42.048;24.638;2023-05-20T06:53:26;97663.78;;;22.22;53.01
10464;BME280;5279;42.048;24.638;2023-05-20T06:55:54;97664.06;;;22.39;49.87
10464;BME280;5279;42.048;24.638;2023-05-20T06:58:22;97645.72;;;22.47;47.81
10464;BME280;5279;42.048;24.638;2023-05-20T07:00:49;97653.50;;;22.68;50.11
10464;BME280;5279;42.048;24.638;2023-05-20T07:03:17;97665.59;;;22.91;57.21
10464;BME280;5279;42.048;24.638;2023-05-20T07:05:44;97650.34;;;22.96;57.32
10464;BME280;5279;42.048;24.638;2023-05-20T07:08:15;97651.44;;;23.13;53.41
10464;BME280;5279;42.048;24.638;2023-05-20T07:10:42;97658.44;;;23.21;58.38
10464;BME280;5279;42.048;24.638;2023-05-20T07:13:11;97657.25;;;23.35;60.28
10464;BME280;5279;42.048;24.638;2023-05-20T07:15:40;97666.03;;;23.55;60.03
10464;BME280;5279;42.048;24.638;2023-05-20T07:18:07;97660.63;;;23.55;55.36
10464;BME280;5279;42.048;24.638;2023-05-20T07:20:34;97665.56;;;23.58;55.65
10464;BME280;5279;42.048;24.638;2023-05-20T07:23:03;97672.44;;;23.36;56.11
10464;BME280;5279;42.048;24.638;2023-05-20T07:25:32;97666.31;;;23.47;57.50
10464;BME280;5279;42.048;24.638;2023-05-20T07:28:02;97678.94;;;23.71;56.82
10464;BME280;5279;42.048;24.638;2023-05-20T07:30:29;97661.78;;;23.95;55.34
10464;BME280;5279;42.048;24.638;2023-05-20T07:32:58;97679.81;;;24.02;53.66
10464;BME280;5279;42.048;24.638;2023-05-20T07:35:30;97678.75;;;24.03;51.85
10464;BME280;5279;42.048;24.638;2023-05-20T07:37:58;97675.41;;;24.07;51.13
10464;BME280;5279;42.048;24.638;2023-05-20T07:40:26;97671.19;;;24.41;50.78
10464;BME280;5279;42.048;24.638;2023-05-20T07:42:54;97674.22;;;24.33;48.62
10464;BME280;5279;42.048;24.638;2023-05-20T07:45:23;97680.22;;;24.35;50.21
10464;BME280;5279;42.048;24.638;2023-05-20T07:47:50;97686.22;;;24.67;52.23
10464;BME280;5279;42.048;24.638;2023-05-20T07:50:18;97682.19;;;24.87;50.35
10464;BME280;5279;42.048;24.638;2023-05-20T07:52:45;97693.94;;;24.81;48.82
10464;BME280;5279;42.048;24.638;2023-05-20T07:55:13;97685.22;;;24.79;49.84
10464;BME280;5279;42.048;24.638;2023-05-20T07:57:40;97673.25;;;24.98;50.33
10464;BME280;5279;42.048;24.638;2023-05-20T08:00:10;97678.91;;;25.09;49.22
10464;BME280;5279;42.048;24.638;2023-05-20T08:02:46;97668.88;;;25.21;49.30
10464;BME280;5279;42.048;24.638;2023-05-20T08:05:13;97678.78;;;25.27;47.86
10464;BME280;5279;42.048;24.638;2023-05-20T08:07:41;97682.13;;;25.29;48.04
10464;BME280;5279;42.048;24.638;2023-05-20T08:10:09;97675.72;;;25.46;47.21
10464;BME280;5279;42.048;24.638;2023-05-20T08:12:36;97676.22;;;25.43;46.71
10464;BME280;5279;42.048;24.638;2023-05-20T08:15:09;97676.13;;;25.50;48.24
10464;BME280;5279;42.048;24.638;2023-05-20T08:17:37;97671.84;;;25.54;47.84
10464;BME280;5279;42.048;24.638;2023-05-20T08:20:07;97673.59;;;25.60;48.70
10464;BME280;5279;42.048;24.638;2023-05-20T08:22:35;97672.66;;;25.66;48.08
10464;BME280;5279;42.048;24.638;2023-05-20T08:25:03;97659.56;;;25.40;47.00
10464;BME280;5279;42.048;24.638;2023-05-20T08:27:31;97661.91;;;25.48;48.03
10464;BME280;5279;42.048;24.638;2023-05-20T08:30:01;97679.88;;;25.49;47.42
10464;BME280;5279;42.048;24.638;2023-05-20T08:32:29;97665.69;;;25.70;49.78
10464;BME280;5279;42.048;24.638;2023-05-20T08:34:57;97668.03;;;25.78;46.04
10464;BME280;5279;42.048;24.638;2023-05-20T08:37:26;97670.25;;;25.93;48.63
10464;BME280;5279;42.048;24.638;2023-05-20T08:39:53;97672.97;;;25.93;49.53
10464;BME280;5279;42.048;24.638;2023-05-20T08:42:22;97654.78;;;25.93;46.86
10464;BME280;5279;42.048;24.638;2023-05-20T08:44:51;97666.41;;;25.77;45.21
10464;BME280;5279;42.048;24.638;2023-05-20T08:50:29;97661.44;;;25.74;43.48
10464;BME280;5279;42.048;24.638;2023-05-20T08:52:56;97670.66;;;25.73;45.25
10464;BME280;5279;42.048;24.638;2023-05-20T08:55:29;97662.88;;;25.65;43.07
10464;BME280;5279;42.048;24.638;2023-05-20T08:57:59;97672.72;;;25.94;43.72
10464;BME280;5279;42.048;24.638;2023-05-20T09:00:26;97661.91;;;25.83;42.04
10464;BME280;5279;42.048;24.638;2023-05-20T09:02:54;97669.72;;;25.68;42.08
10464;BME280;5279;42.048;24.638;2023-05-20T09:05:22;97667.59;;;25.35;39.66
10464;BME280;5279;42.048;24.638;2023-05-20T09:08:03;97673.75;;;25.65;43.12
10464;BME280;5279;42.048;24.638;2023-05-20T09:10:31;97662.03;;;25.76;41.78
10464;BME280;5279;42.048;24.638;2023-05-20T09:13:00;97659.56;;;25.63;40.63
10464;BME280;5279;42.048;24.638;2023-05-20T09:15:29;97655.09;;;25.57;39.65
10464;BME280;5279;42.048;24.638;2023-05-20T09:17:58;97665.16;;;25.96;39.21
10464;BME280;5279;42.048;24.638;2023-05-20T09:20:36;97665.84;;;26.03;39.97
10464;BME280;5279;42.048;24.638;2023-05-20T09:23:08;97669.50;;;26.09;38.69
10464;BME280;5279;42.048;24.638;2023-05-20T09:25:36;97642.75;;;25.89;40.58
10464;BME280;5279;42.048;24.638;2023-05-20T09:28:04;97651.56;;;26.08;41.05
10464;BME280;5279;42.048;24.638;2023-05-20T09:30:32;97667.25;;;26.18;39.66
10464;BME280;5279;42.048;24.638;2023-05-20T09:33:02;97664.09;;;26.37;43.69
10464;BME280;5279;42.048;24.638;2023-05-20T09:35:33;97662.56;;;26.01;40.22
10464;BME280;5279;42.048;24.638;2023-05-20T09:38:03;97665.97;;;25.97;41.37
10464;BME280;5279;42.048;24.638;2023-05-20T09:40:33;97655.66;;;25.71;44.70
10464;BME280;5279;42.048;24.638;2023-05-20T09:43:03;97657.31;;;26.12;44.18
10464;BME280;5279;42.048;24.638;2023-05-20T09:45:32;97651.84;;;25.95;43.64
10464;BME280;5279;42.048;24.638;2023-05-20T09:48:03;97650.31;;;25.87;43.44
10464;BME280;5279;42.048;24.638;2023-05-20T09:50:31;97660.88;;;25.61;43.13
10464;BME280;5279;42.048;24.638;2023-05-20T09:53:03;97664.16;;;25.63;44.21
10464;BME280;5279;42.048;24.638;2023-05-20T09:55:34;97660.41;;;25.64;44.10
10464;BME280;5279;42.048;24.638;2023-05-20T09:58:02;97649.16;;;25.83;42.38
10464;BME280;5279;42.048;24.638;2023-05-20T10:00:31;97643.88;;;26.17;44.73
10464;BME280;5279;42.048;24.638;2023-05-20T10:02:59;97643.75;;;26.40;42.92
10464;BME280;5279;42.048;24.638;2023-05-20T10:05:29;97651.47;;;26.59;42.43
10464;BME280;5279;42.048;24.638;2023-05-20T10:08:34;97649.38;;;26.50;41.40
10464;BME280;5279;42.048;24.638;2023-05-20T10:11:18;97646.06;;;26.48;41.61
10464;BME280;5279;42.048;24.638;2023-05-20T10:14:05;97630.53;;;26.60;43.90
10464;BME280;5279;42.048;24.638;2023-05-20T10:16:41;97633.41;;;26.53;42.89
10464;BME280;5279;42.048;24.638;2023-05-20T10:19:19;97628.63;;;26.44;41.49
10464;BME280;5279;42.048;24.638;2023-05-20T10:21:59;97636.22;;;26.58;41.64
10464;BME280;5279;42.048;24.638;2023-05-20T10:24:31;97629.84;;;26.08;40.73
10464;BME280;5279;42.048;24.638;2023-05-20T10:27:02;97631.41;;;25.52;41.65
10464;BME280;5279;42.048;24.638;2023-05-20T10:29:40;97626.56;;;25.20;43.72
10464;BME280;5279;42.048;24.638;2023-05-20T10:32:08;97637.28;;;25.03;43.99
10464;BME280;5279;42.048;24.638;2023-05-20T10:34:44;97628.75;;;24.76;43.96
10464;BME280;5279;42.048;24.638;2023-05-20T10:37:22;97637.75;;;24.47;46.13
10464;BME280;5279;42.048;24.638;2023-05-20T10:39:49;97641.47;;;23.86;47.51
10464;BME280;5279;42.048;24.638;2023-05-20T10:42:27;97640.47;;;23.69;49.56
10464;BME280;5279;42.048;24.638;2023-05-20T10:44:54;97633.94;;;23.59;48.57
10464;BME280;5279;42.048;24.638;2023-05-20T10:47:22;97638.00;;;23.68;49.50
10464;BME280;5279;42.048;24.638;2023-05-20T10:49:51;97625.72;;;23.47;49.17
10464;BME280;5279;42.048;24.638;2023-05-20T10:52:18;97630.50;;;23.27;50.45
10464;BME280;5279;42.048;24.638;2023-05-20T10:54:47;97616.94;;;22.91;50.94
10464;BME280;5279;42.048;24.638;2023-05-20T10:57:22;97625.19;;;22.96;52.63
10464;BME280;5279;42.048;24.638;2023-05-20T10:59:50;97620.97;;;22.81;53.53
10464;BME280;5279;42.048;24.638;2023-05-20T11:02:19;97616.22;;;22.77;53.56
10464;BME280;5279;42.048;24.638;2023-05-20T11:04:51;97625.22;;;23.14;56.31
10464;BME280;5279;42.048;24.638;2023-05-20T11:07:26;97623.34;;;23.39;52.54
10464;BME280;5279;42.048;24.638;2023-05-20T11:09:54;97609.13;;;23.25;50.55
10464;BME280;5279;42.048;24.638;2023-05-20T11:12:24;97626.56;;;23.05;49.79
10464;BME280;5279;42.048;24.638;2023-05-20T11:14:52;97626.56;;;22.80;49.82
10464;BME280;5279;42.048;24.638;2023-05-20T11:17:20;97618.63;;;22.60;52.13
10464;BME280;5279;42.048;24.638;2023-05-20T11:19:50;97617.97;;;22.65;51.99
10464;BME280;5279;42.048;24.638;2023-05-20T11:22:17;97626.00;;;22.78;52.14
10464;BME280;5279;42.048;24.638;2023-05-20T11:24:46;97626.53;;;22.86;51.76
10464;BME280;5279;42.048;24.638;2023-05-20T11:27:13;97624.19;;;23.15;50.45
10464;BME280;5279;42.048;24.638;2023-05-20T11:29:42;97625.72;;;23.47;50.96
10464;BME280;5279;42.048;24.638;2023-05-20T11:32:11;97626.31;;;23.85;49.25
10464;BME280;5279;42.048;24.638;2023-05-20T11:34:38;97607.41;;;23.97;49.27
10464;BME280;5279;42.048;24.638;2023-05-20T11:37:07;97622.22;;;24.13;47.45
10464;BME280;5279;42.048;24.638;2023-05-20T11:39:36;97621.78;;;23.98;48.39
10464;BME280;5279;42.048;24.638;2023-05-20T11:42:05;97632.84;;;23.78;46.87
10464;BME280;5279;42.048;24.638;2023-05-20T11:44:35;97615.75;;;23.48;48.06
10464;BME280;5279;42.048;24.638;2023-05-20T11:47:05;97624.66;;;23.30;47.15
10464;BME280;5279;42.048;24.638;2023-05-20T11:49:38;97631.09;;;23.29;46.29
10464;BME280;5279;42.048;24.638;2023-05-20T11:52:08;97616.53;;;23.12;44.92
10464;BME280;5279;42.048;24.638;2023-05-20T11:54:35;97636.28;;;23.55;46.15
10464;BME280;5279;42.048;24.638;2023-05-20T11:57:04;97628.81;;;24.17;45.20
10464;BME280;5279;42.048;24.638;2023-05-20T11:59:32;97627.53;;;24.49;43.05
10464;BME280;5279;42.048;24.638;2023-05-20T12:02:04;97616.88;;;24.77;43.24
10464;BME280;5279;42.048;24.638;2023-05-20T12:04:32;97616.88;;;25.24;41.21
10464;BME280;5279;42.048;24.638;2023-05-20T12:07:00;97614.50;;;25.39;40.36
10464;BME280;5279;42.048;24.638;2023-05-20T12:09:28;97623.81;;;25.43;39.54
10464;BME280;5279;42.048;24.638;2023-05-20T12:11:57;97616.88;;;25.47;40.31
10464;BME280;5279;42.048;24.638;2023-05-20T12:14:25;97620.91;;;25.56;39.53
10464;BME280;5279;42.048;24.638;2023-05-20T12:16:52;97609.19;;;25.32;39.17
10464;BME280;5279;42.048;24.638;2023-05-20T12:19:21;97612.88;;;24.91;40.79
10464;BME280;5279;42.048;24.638;2023-05-20T12:21:48;97616.19;;;24.93;40.18
10464;BME280;5279;42.048;24.638;2023-05-20T12:24:29;97607.25;;;24.52;41.39
10464;BME280;5279;42.048;24.638;2023-05-20T12:26:57;97614.06;;;24.31;41.87
10464;BME280;5279;42.048;24.638;2023-05-20T12:29:25;97607.88;;;24.12;42.65
10464;BME280;5279;42.048;24.638;2023-05-20T12:31:52;97606.25;;;24.05;43.38
10464;BME280;5279;42.048;24.638;2023-05-20T12:34:22;97610.97;;;23.98;43.43
10464;BME280;5279;42.048;24.638;2023-05-20T12:36:50;97609.28;;;23.67;43.08
10464;BME280;5279;42.048;24.638;2023-05-20T12:39:18;97615.81;;;23.59;44.28
10464;BME280;5279;42.048;24.638;2023-05-20T12:41:45;97595.63;;;23.62;44.20
10464;BME280;5279;42.048;24.638;2023-05-20T12:44:13;97584.34;;;23.47;43.95
10464;BME280;5279;42.048;24.638;2023-05-20T12:46:40;97588.59;;;23.72;44.61
10464;BME280;5279;42.048;24.638;2023-05-20T12:49:09;97596.69;;;23.90;45.99
10464;BME280;5279;42.048;24.638;2023-05-20T12:51:38;97575.28;;;24.19;43.12
10464;BME280;5279;42.048;24.638;2023-05-20T12:54:06;97571.69;;;24.48;41.01
10464;BME280;5279;42.048;24.638;2023-05-20T12:56:34;97558.88;;;24.78;42.21
10464;BME280;5279;42.048;24.638;2023-05-20T12:59:01;97554.75;;;24.64;42.07
10464;BME280;5279;42.048;24.638;2023-05-20T13:01:28;97546.03;;;24.97;41.08
10464;BME280;5279;42.048;24.638;2023-05-20T13:03:56;97535.03;;;25.27;40.20
10464;BME280;5279;42.048;24.638;2023-05-20T13:06:24;97547.44;;;25.74;40.79
10464;BME280;5279;42.048;24.638;2023-05-20T13:09:11;97530.53;;;26.00;38.59
10464;BME280;5279;42.048;24.638;2023-05-20T13:11:51;97520.84;;;26.04;39.39